Portada
METAR-TAF:

METAR-TAF

Aeroports :

East Hampton Airport

East Hampton, Nova York, Estats Units d'Amèrica

latitud: 40-57-34N, longitud: 072-15-07W, altitud: 17 m

Observació

L'informe es va fer fa 32 minuts, a les 22:55 UTC
Vent 8 kt del Est, variant entre Nord-Est i Est/Sud-Est
Temperatura 15°C
Humitat 72%
Pressió 1024 hPa
Visibilitat: 16.1 km
Cel ennuvolat a una alçada de 2300 ft
Cel ennuvolat a una alçada de 3200 ft

METAR: KHTO 242255Z AUTO 08008KT 050V110 10SM BKN023 BKN032 15/10 A3024 RMK AO2 T01480096

Hora: 19:27 (23:27 UTC)


TAF: manca

Observacions i pronòstics meteorològics de més de 4000 aeroports (METAR i TAF).

Les estacions disponibles són els punts grocs i vermells al mapa.

Posi el ratolí al punt desitjat per veure el nom de l'estació.

Feu clic per veure les observacions i els pronòstics meteorològics.

Per canviar el mapa: feu clic els botons verds amb una creu de color negre per apropar; al botó verd amb un guió per allunyar la imatge; o en les fletxes verdes per a mapes adjacents.


METAR-TAF: